Time;durP1;ratioP1;P1;durP2;ratioP2;P2;SDS_P1;SDS_P2;PMS_P1;PMS_P2;Temp;Humidity;BMP_temperature;BMP_pressure;BME280_temperature;BME280_humidity;BME280_pressure;Samples;Min_cycle;Max_cycle;Signal;HPM_P1;HPM_P2
2023/07/08 22:01:54;;;;;;;;;;;;;;;20.09;63.61;101310.03;5115464;22;2404;-78
2023/07/08 22:04:20;;;;;;;;;;;;;;;20.09;63.84;101307.31;5119948;27;1928;-77
2023/07/08 22:07:06;;;;;;;;;;;;;;;20.09;63.67;101310.03;5116705;27;2249;-77
2023/07/08 22:09:53;;;;;;;;;;;;;;;20.08;63.75;101309.22;5122063;27;2583;-78
2023/07/08 22:12:40;;;;;;;;;;;;;;;20.07;63.71;101304.84;5121834;27;1371;-78
2023/07/08 22:15:32;;;;;;;;;;;;;;;20.08;63.63;101302.94;5120459;27;1511;-77
2023/07/08 22:18:21;;;;;;;;;;;;;;;20.06;63.62;101305.94;5111666;27;1178;-77
2023/07/08 22:21:08;;;;;;;;;;;;;;;20.06;63.65;101305.94;5128420;27;1904;-77
2023/07/08 22:23:35;;;;;;;;;;;;;;;20.06;63.50;101307.84;5121901;27;1212;-77
2023/07/08 22:26:01;;;;;;;;;;;;;;;20.06;63.49;101310.56;5121759;28;1502;-77
2023/07/08 22:28:28;;;;;;;;;;;;;;;20.05;63.56;101314.41;5120868;28;1968;-78
2023/07/08 22:30:54;;;;;;;;;;;;;;;20.04;63.75;101316.31;5120020;28;1538;-77
2023/07/08 22:33:23;;;;;;;;;;;;;;;20.05;63.30;101317.97;5120951;28;1697;-77
2023/07/08 22:35:51;;;;;;;;;;;;;;;20.05;63.39;101320.69;5122486;28;1539;-78
2023/07/08 22:38:18;;;;;;;;;;;;;;;20.04;63.30;101324.53;5122217;28;1293;-77
2023/07/08 22:40:48;;;;;;;;;;;;;;;20.04;63.39;101323.72;5119396;28;1494;-77
2023/07/08 22:43:15;;;;;;;;;;;;;;;20.03;63.68;101320.16;5120778;27;1608;-78
2023/07/08 22:45:41;;;;;;;;;;;;;;;20.03;63.36;101316.56;5122790;27;1595;-78
2023/07/08 22:48:08;;;;;;;;;;;;;;;20.03;63.50;101322.03;5117281;28;1913;-78
2023/07/08 22:50:35;;;;;;;;;;;;;;;20.01;63.57;101311.38;5120282;28;1424;-79
2023/07/08 22:53:02;;;;;;;;;;;;;;;20.01;63.59;101316.84;5122442;28;1523;-77
2023/07/08 22:55:28;;;;;;;;;;;;;;;20.01;63.31;101319.59;5121130;27;1565;-77
2023/07/08 22:57:55;;;;;;;;;;;;;;;20.00;63.44;101320.69;5114486;27;1173;-80
2023/07/08 23:00:22;;;;;;;;;;;;;;;19.99;63.37;101321.75;5125680;27;1511;-78
2023/07/08 23:02:48;;;;;;;;;;;;;;;20.00;63.61;101326.16;5144334;27;1366;-78
2023/07/08 23:05:15;;;;;;;;;;;;;;;19.98;63.15;101320.13;5145897;27;1383;-78
2023/07/08 23:07:41;;;;;;;;;;;;;;;19.99;63.38;101323.66;5128105;27;1914;-79
2023/07/08 23:10:08;;;;;;;;;;;;;;;19.98;63.48;101319.28;5128008;27;1511;-79
2023/07/08 23:12:35;;;;;;;;;;;;;;;19.99;63.34;101323.66;5140449;27;1619;-77
2023/07/08 23:15:01;;;;;;;;;;;;;;;19.97;63.07;101334.84;5125023;27;1128;-78
2023/07/08 23:17:28;;;;;;;;;;;;;;;19.96;63.29;101325.84;5121810;27;1723;-78
2023/07/08 23:19:54;;;;;;;;;;;;;;;19.97;63.03;101326.66;5123131;27;2189;-78
2023/07/08 23:22:22;;;;;;;;;;;;;;;19.96;63.43;101335.94;5107533;28;1746;-79
2023/07/08 23:24:49;;;;;;;;;;;;;;;19.95;63.02;101340.59;5119877;27;1527;-79
2023/07/08 23:27:15;;;;;;;;;;;;;;;19.95;63.10;101337.88;5114193;27;1914;-79
2023/07/08 23:29:42;;;;;;;;;;;;;;;19.95;63.11;101343.34;5122118;27;1847;-78
2023/07/08 23:32:08;;;;;;;;;;;;;;;19.93;63.02;101342.75;5121712;27;1565;-78
2023/07/08 23:34:38;;;;;;;;;;;;;;;19.93;62.98;101340.03;5121347;27;1620;-79
2023/07/08 23:37:04;;;;;;;;;;;;;;;19.93;62.95;101339.22;5120433;27;1868;-79
2023/07/08 23:39:33;;;;;;;;;;;;;;;19.93;63.06;101333.75;5122540;27;1531;-79
2023/07/08 23:41:59;;;;;;;;;;;;;;;19.91;63.18;101341.38;5113442;27;1630;-78
2023/07/08 23:44:26;;;;;;;;;;;;;;;19.91;63.21;101338.63;5123407;27;2015;-78
2023/07/08 23:46:54;;;;;;;;;;;;;;;19.91;62.86;101338.63;5113705;27;1675;-78
2023/07/08 23:49:24;;;;;;;;;;;;;;;19.90;62.77;101332.34;5120708;27;1913;-78
2023/07/08 23:51:52;;;;;;;;;;;;;;;19.88;62.85;101329.09;5111316;27;1761;-79
2023/07/08 23:54:18;;;;;;;;;;;;;;;19.87;63.09;101338.34;5119807;27;1634;-79
2023/07/08 23:56:45;;;;;;;;;;;;;;;19.87;62.70;101337.53;5123903;27;1628;-79
2023/07/08 23:59:11;;;;;;;;;;;;;;;19.87;63.09;101341.09;5125169;27;1310;-79
